Time;durP1;ratioP1;P1;durP2;ratioP2;P2;SDS_P1;SDS_P2;PMS_P1;PMS_P2;Temp;Humidity;BMP_temperature;BMP_pressure;BME280_temperature;BME280_humidity;BME280_pressure;Samples;Min_cycle;Max_cycle;Signal;HPM_P1;HPM_P2
2022/08/08 00:01:04;;;;;;;7.63;5.15;;;;;;;16.47;91.76;102372.50;5114877;27;20490;-62
2022/08/08 00:03:47;;;;;;;10.63;5.03;;;;;;;16.45;91.81;102369.13;5115157;28;20093;-57
2022/08/08 00:06:28;;;;;;;11.63;5.53;;;;;;;16.42;92.03;102372.00;5113237;28;20039;-57
2022/08/08 00:09:08;;;;;;;8.88;5.05;;;;;;;16.46;91.81;102376.97;5110896;28;20521;-62
2022/08/08 00:11:44;;;;;;;11.40;5.45;;;;;;;16.29;92.63;102375.44;5113944;28;20510;-57
2022/08/08 00:14:45;;;;;;;9.93;5.13;;;;;;;16.28;93.35;102371.09;5114244;28;20051;-62
2022/08/08 00:17:35;;;;;;;9.15;5.18;;;;;;;16.26;93.39;102377.44;5112488;28;20047;-62
2022/08/08 00:20:41;;;;;;;8.93;4.75;;;;;;;16.21;93.92;102377.72;5112168;28;20093;-57
2022/08/08 00:23:15;;;;;;;9.85;5.32;;;;;;;16.22;93.77;102374.13;5114471;28;20132;-63
2022/08/08 00:25:48;;;;;;;;;;;;;;;16.15;94.88;102373.66;5115010;28;20036;-63
2022/08/08 00:28:24;;;;;;;9.90;4.93;;;;;;;16.12;95.19;102379.19;5114428;28;20401;-54
2022/08/08 00:31:12;;;;;;;12.30;6.13;;;;;;;16.06;95.86;102371.63;5114217;28;20078;-55
2022/08/08 00:37:21;;;;;;;9.25;5.45;;;;;;;16.00;96.32;102372.03;5114182;28;20164;-55
2022/08/08 00:40:48;;;;;;;10.75;5.40;;;;;;;16.14;95.99;102366.69;5110930;28;20063;-62
2022/08/08 00:44:20;;;;;;;10.45;5.68;;;;;;;16.08;96.28;102364.41;5112115;28;20127;-63
2022/08/08 00:47:39;;;;;;;10.73;5.72;;;;;;;16.09;96.58;102362.59;5097305;28;20051;-62
2022/08/08 00:51:06;;;;;;;9.80;5.90;;;;;;;15.98;96.79;102361.50;5114165;28;20085;-57
2022/08/08 00:53:57;;;;;;;9.10;5.88;;;;;;;16.01;96.87;102361.31;5114272;28;20490;-61
2022/08/08 00:57:05;;;;;;;12.27;5.63;;;;;;;15.99;96.77;102351.72;5114105;28;20058;-62
2022/08/08 01:00:09;;;;;;;9.60;5.63;;;;;;;15.91;97.77;102359.34;5114024;28;20101;-55
2022/08/08 01:03:08;;;;;;;;;;;;;;;15.95;97.27;102361.72;5100836;27;20383;-56
2022/08/08 01:06:19;;;;;;;10.48;5.30;;;;;;;15.99;97.32;102359.69;5111545;28;19920;-61
2022/08/08 01:09:21;;;;;;;9.90;5.43;;;;;;;15.95;97.58;102356.41;5109753;28;20139;-56
2022/08/08 01:12:43;;;;;;;11.63;5.13;;;;;;;15.92;97.30;102356.56;5113212;28;20090;-63
2022/08/08 01:15:29;;;;;;;;;;;;;;;15.94;97.23;102359.13;5110138;28;20409;-56
2022/08/08 01:18:32;;;;;;;9.10;5.40;;;;;;;15.82;98.34;102360.78;5113208;28;19923;-62
2022/08/08 01:21:45;;;;;;;10.38;5.28;;;;;;;15.78;98.80;102360.09;5113699;28;20048;-60
2022/08/08 01:25:03;;;;;;;7.80;5.00;;;;;;;15.76;99.38;102363.78;5113834;28;20429;-56
2022/08/08 01:27:57;;;;;;;12.15;5.38;;;;;;;15.65;100.00;102370.63;5080744;28;20055;-62
2022/08/08 01:31:06;;;;;;;9.68;5.40;;;;;;;15.70;99.94;102360.56;5111016;28;20040;-55
2022/08/08 01:34:21;;;;;;;12.23;5.57;;;;;;;15.70;100.00;102367.66;5112552;28;20118;-62
2022/08/08 01:37:42;;;;;;;12.13;5.45;;;;;;;15.84;98.95;102361.53;5109290;28;20146;-56
2022/08/08 01:40:32;;;;;;;8.43;5.35;;;;;;;15.82;99.33;102361.63;5112878;28;20081;-55
2022/08/08 01:43:09;;;;;;;10.82;6.30;;;;;;;15.69;99.51;102356.22;5112891;28;20047;-62
2022/08/08 01:45:55;;;;;;;7.80;4.88;;;;;;;15.57;100.00;102359.66;5112126;28;20048;-62
2022/08/08 01:48:48;;;;;;;12.00;5.70;;;;;;;15.68;100.00;102369.59;5109949;28;20502;-62
2022/08/08 01:51:44;;;;;;;8.13;5.13;;;;;;;15.61;100.00;102358.50;5111757;28;20055;-62
2022/08/08 01:54:47;;;;;;;9.88;4.90;;;;;;;15.55;100.00;102357.06;5112439;28;20109;-63
2022/08/08 01:57:44;;;;;;;12.60;5.60;;;;;;;15.56;100.00;102360.59;5111189;28;20050;-57
2022/08/08 02:00:42;;;;;;;9.63;5.03;;;;;;;15.49;100.00;102369.88;5111458;28;20203;-61
2022/08/08 02:03:35;;;;;;;15.23;5.15;;;;;;;15.47;100.00;102362.00;5110125;28;20503;-53
2022/08/08 02:06:42;;;;;;;9.82;5.47;;;;;;;15.54;100.00;102357.16;5112287;28;20491;-62
2022/08/08 02:09:22;;;;;;;10.77;5.65;;;;;;;15.48;100.00;102357.56;5112803;28;20043;-62
2022/08/08 02:12:20;;;;;;;9.50;5.03;;;;;;;15.47;100.00;102355.84;5111509;28;20046;-62
2022/08/08 02:14:57;;;;;;;10.10;5.20;;;;;;;15.40;100.00;102354.53;5110340;28;20124;-54
2022/08/08 02:17:34;;;;;;;11.13;5.70;;;;;;;15.40;100.00;102354.53;5109694;28;20046;-56
2022/08/08 02:20:18;;;;;;;10.13;5.55;;;;;;;15.35;100.00;102353.03;5115684;28;20047;-56
2022/08/08 02:23:18;;;;;;;10.23;5.53;;;;;;;15.44;100.00;102353.41;5116350;28;20454;-62
2022/08/08 02:25:56;;;;;;;10.82;5.70;;;;;;;15.37;100.00;102343.16;5116796;28;20465;-55
2022/08/08 02:28:46;;;;;;;10.45;5.75;;;;;;;15.35;100.00;102347.72;5115650;28;20108;-62
2022/08/08 02:31:37;;;;;;;10.13;5.85;;;;;;;15.29;100.00;102352.53;5116572;28;20048;-56
2022/08/08 02:34:45;;;;;;;7.72;5.18;;;;;;;15.15;100.00;102348.09;5114228;28;20040;-56
2022/08/08 02:37:45;;;;;;;8.38;5.40;;;;;;;15.10;100.00;102352.81;5112463;28;20063;-57
2022/08/08 02:40:39;;;;;;;10.35;5.90;;;;;;;15.17;100.00;102354.13;5116765;28;20040;-62
2022/08/08 02:43:59;;;;;;;9.60;5.60;;;;;;;15.11;100.00;102357.19;5116719;28;20046;-61
2022/08/08 02:47:17;;;;;;;8.82;4.90;;;;;;;15.02;100.00;102358.56;5034611;28;20046;-61
2022/08/08 02:50:36;;;;;;;9.10;5.40;;;;;;;15.08;100.00;102360.84;5113905;28;20042;-62
2022/08/08 02:53:24;;;;;;;9.93;5.18;;;;;;;15.02;100.00;102362.09;5032533;28;20159;-61
2022/08/08 02:56:31;;;;;;;9.60;6.18;;;;;;;15.03;100.00;102371.72;5014969;28;20574;-55
2022/08/08 02:59:37;;;;;;;14.80;5.78;;;;;;;15.10;100.00;102358.13;5115408;28;20078;-62
2022/08/08 03:03:02;;;;;;;9.77;5.72;;;;;;;15.06;100.00;102365.38;5113734;28;20089;-62
2022/08/08 03:06:07;;;;;;;8.80;5.25;;;;;;;15.00;100.00;102357.81;5114634;28;20480;-56
2022/08/08 03:09:27;;;;;;;10.70;5.72;;;;;;;14.88;100.00;102364.69;5114167;28;20047;-57
2022/08/08 03:12:31;;;;;;;9.50;5.05;;;;;;;14.82;100.00;102363.25;5112402;28;20082;-57
2022/08/08 03:15:54;;;;;;;9.32;5.63;;;;;;;14.82;100.00;102365.03;5113622;28;20498;-62
2022/08/08 03:18:37;;;;;;;9.38;5.15;;;;;;;14.86;100.00;102356.84;5115277;28;20073;-61
2022/08/08 03:21:05;;;;;;;8.40;4.95;;;;;;;14.87;100.00;102355.91;5115586;28;20043;-61
2022/08/08 03:23:38;;;;;;;12.32;4.95;;;;;;;14.86;100.00;102361.25;5116069;28;20429;-62
2022/08/08 03:26:30;;;;;;;11.20;5.28;;;;;;;14.80;100.00;102364.28;5115889;28;20051;-55
2022/08/08 03:29:12;;;;;;;8.45;4.97;;;;;;;14.81;100.00;102373.94;5115565;28;20044;-62
2022/08/08 03:34:35;;;;;;;9.85;5.10;;;;;;;14.75;100.00;102363.72;5115889;28;20478;-63
2022/08/08 03:37:11;;;;;;;9.02;5.60;;;;;;;14.68;100.00;102371.16;5113513;28;20047;-62
2022/08/08 03:40:00;;;;;;;10.27;5.30;;;;;;;14.67;100.00;102367.66;5112778;28;20054;-56
2022/08/08 03:42:30;;;;;;;10.20;5.50;;;;;;;14.68;100.00;102366.72;5115342;28;20043;-55
2022/08/08 03:44:58;;;;;;;10.65;5.20;;;;;;;14.75;100.00;102369.00;5114281;28;20047;-55
2022/08/08 03:47:29;;;;;;;10.93;5.55;;;;;;;14.74;100.00;102367.28;5112545;28;20133;-62
2022/08/08 03:50:17;;;;;;;11.23;5.78;;;;;;;14.64;100.00;102369.63;5113853;28;20039;-55
2022/08/08 03:52:52;;;;;;;8.48;4.75;;;;;;;14.62;100.00;102368.84;5114376;28;20155;-55
2022/08/08 03:55:24;;;;;;;9.02;4.95;;;;;;;14.61;100.00;102372.44;5111827;28;20150;-54
2022/08/08 03:58:18;;;;;;;9.38;5.57;;;;;;;14.55;100.00;102376.28;5113782;28;20052;-54
2022/08/08 04:01:05;;;;;;;10.88;4.80;;;;;;;14.56;100.00;102378.00;5114982;28;20096;-55
2022/08/08 04:03:53;;;;;;;10.23;5.00;;;;;;;14.53;100.00;102380.81;5114934;28;20040;-56
2022/08/08 04:06:27;;;;;;;9.13;5.32;;;;;;;14.53;100.00;102386.97;5112580;28;20059;-62
2022/08/08 04:08:58;;;;;;;8.18;4.90;;;;;;;14.51;100.00;102388.84;5111527;28;20544;-54
2022/08/08 04:11:43;;;;;;;11.00;5.25;;;;;;;14.55;100.00;102397.47;5114635;28;20439;-62
2022/08/08 04:14:27;;;;;;;10.32;5.35;;;;;;;14.51;100.00;102388.84;5114933;28;20070;-55
2022/08/08 04:17:03;;;;;;;11.00;5.15;;;;;;;14.54;100.00;102393.94;5112899;28;20051;-62
2022/08/08 04:19:50;;;;;;;8.60;5.28;;;;;;;14.58;100.00;102394.63;5112818;28;20040;-62
2022/08/08 04:22:19;;;;;;;12.10;5.20;;;;;;;14.47;100.00;102399.69;5114629;28;20067;-61
2022/08/08 04:24:51;;;;;;;9.45;5.10;;;;;;;14.44;100.00;102402.50;5114646;28;20044;-62
2022/08/08 04:27:21;;;;;;;9.88;5.63;;;;;;;14.51;100.00;102401.22;5113127;28;20047;-54
2022/08/08 04:30:11;;;;;;;8.90;5.80;;;;;;;14.50;100.00;102396.88;5114339;28;20102;-61
2022/08/08 04:32:46;;;;;;;10.80;5.05;;;;;;;14.52;100.00;102409.09;5113340;28;20201;-54
2022/08/08 04:35:17;;;;;;;10.20;5.00;;;;;;;14.52;100.00;102416.19;5111613;28;20509;-53
2022/08/08 04:37:49;;;;;;;8.45;5.13;;;;;;;14.57;100.00;102414.09;5112402;28;20469;-54
2022/08/08 04:40:18;;;;;;;10.60;5.85;;;;;;;14.50;100.00;102418.88;5113962;28;20078;-55
2022/08/08 04:42:52;;;;;;;9.65;5.22;;;;;;;14.48;100.00;102418.13;5113463;28;20051;-62
2022/08/08 04:45:24;;;;;;;11.68;5.93;;;;;;;14.48;100.00;102427.84;5114023;28;20039;-62
2022/08/08 04:47:53;;;;;;;11.57;5.72;;;;;;;14.47;100.00;102426.16;5114162;28;20055;-63
2022/08/08 04:50:21;;;;;;;13.75;6.10;;;;;;;14.52;100.00;102429.41;5114257;28;20087;-61
2022/08/08 04:52:59;;;;;;;11.65;5.65;;;;;;;14.56;100.00;102430.94;5110509;28;20441;-53
2022/08/08 04:55:32;;;;;;;11.50;5.90;;;;;;;14.50;100.00;102433.94;5111216;28;20550;-61
2022/08/08 04:58:16;;;;;;;11.43;5.43;;;;;;;14.45;100.00;102425.38;5114004;28;20093;-61
2022/08/08 05:00:45;;;;;;;10.95;5.35;;;;;;;14.50;100.00;102433.94;5113937;28;20071;-61
2022/08/08 05:03:17;;;;;;;9.27;5.40;;;;;;;14.48;100.00;102438.44;5112719;28;20130;-61
2022/08/08 05:06:05;;;;;;;9.75;5.45;;;;;;;14.53;100.00;102439.03;5112536;28;20059;-53
2022/08/08 05:08:46;;;;;;;14.60;5.80;;;;;;;14.54;100.00;102441.59;5109601;28;20043;-55
2022/08/08 05:11:19;;;;;;;10.13;5.65;;;;;;;14.59;100.00;102445.78;5112328;28;20039;-55
2022/08/08 05:13:53;;;;;;;10.35;5.28;;;;;;;14.65;100.00;102440.19;5108365;28;20047;-61
2022/08/08 05:16:29;;;;;;;8.20;4.88;;;;;;;14.68;100.00;102447.94;5111915;28;20053;-62
2022/08/08 05:19:17;;;;;;;10.15;5.60;;;;;;;14.68;100.00;102454.09;5113249;28;20040;-61
2022/08/08 05:22:06;;;;;;;9.27;5.03;;;;;;;14.66;100.00;102445.38;5111597;28;20051;-55
2022/08/08 05:24:34;;;;;;;10.70;5.32;;;;;;;14.70;100.00;102444.25;5090676;28;20113;-61
2022/08/08 05:27:05;;;;;;;10.63;5.18;;;;;;;14.77;100.00;102446.56;5091043;28;20048;-61
2022/08/08 05:29:35;;;;;;;11.02;5.10;;;;;;;14.78;100.00;102453.56;5093283;28;20138;-62
2022/08/08 05:32:05;;;;;;;8.27;5.32;;;;;;;14.83;100.00;102446.22;5093625;28;20052;-61
2022/08/08 05:34:36;;;;;;;9.02;4.85;;;;;;;14.87;100.00;102453.03;5110468;28;20448;-53
2022/08/08 05:37:05;;;;;;;9.20;4.90;;;;;;;14.92;100.00;102444.84;5112690;28;20067;-56
2022/08/08 05:39:49;;;;;;;8.93;4.93;;;;;;;15.00;100.00;102454.03;5111419;28;20058;-61
2022/08/08 05:42:22;;;;;;;10.25;5.20;;;;;;;15.08;100.00;102444.78;5112933;28;20047;-56
2022/08/08 05:44:55;;;;;;;12.70;4.60;;;;;;;15.15;100.00;102441.69;5096934;28;20040;-62
2022/08/08 05:47:27;;;;;;;8.00;4.00;;;;;;;15.22;100.00;102444.81;5093079;28;20086;-53
2022/08/08 05:50:17;;;;;;;7.82;4.10;;;;;;;15.31;100.00;102449.56;5091839;28;20112;-61
2022/08/08 05:52:45;;;;;;;8.15;3.78;;;;;;;15.38;100.00;102452.72;5087264;28;20052;-62
2022/08/08 05:55:13;;;;;;;7.55;3.85;;;;;;;15.45;100.00;102455.84;5091398;28;20129;-55
2022/08/08 05:57:41;;;;;;;7.43;3.75;;;;;;;15.55;100.00;102457.81;5092458;28;20534;-57
2022/08/08 06:00:32;;;;;;;7.32;4.10;;;;;;;15.66;100.00;102459.81;5093037;28;20044;-62
2022/08/08 06:03:12;;;;;;;8.75;3.25;;;;;;;15.72;100.00;102456.81;5093065;28;20108;-62
2022/08/08 06:05:55;;;;;;;9.60;3.58;;;;;;;15.85;100.00;102458.72;5092660;28;20046;-55
2022/08/08 06:08:28;;;;;;;8.73;3.45;;;;;;;15.96;100.00;102458.91;5112183;28;20082;-61
2022/08/08 06:11:05;;;;;;;15.73;3.50;;;;;;;16.04;100.00;102456.63;5112696;28;20115;-63
2022/08/08 06:13:35;;;;;;;19.58;3.58;;;;;;;16.15;100.00;102453.28;5112932;28;20574;-55
2022/08/08 06:16:17;;;;;;;11.88;3.35;;;;;;;16.28;100.00;102457.81;5099388;28;20055;-63
2022/08/08 06:18:55;;;;;;;18.25;3.55;;;;;;;16.39;100.00;102460.66;5092452;28;20127;-55
2022/08/08 06:21:24;;;;;;;14.10;3.47;;;;;;;16.50;100.00;102466.13;5092289;28;20143;-62
2022/08/08 06:24:12;;;;;;;12.30;3.00;;;;;;;16.66;100.00;102468.63;5092720;28;20494;-63
2022/08/08 06:27:03;;;;;;;12.35;3.28;;;;;;;16.82;99.83;102465.78;5104587;28;20130;-63
2022/08/08 06:29:35;;;;;;;9.57;2.70;;;;;;;16.99;98.51;102463.88;5110767;28;20059;-63
2022/08/08 06:32:30;;;;;;;9.18;3.08;;;;;;;17.12;96.65;102466.56;5111160;28;20516;-57
2022/08/08 06:35:01;;;;;;;10.45;2.75;;;;;;;17.26;96.93;102471.81;5110417;28;20043;-63
2022/08/08 06:37:52;;;;;;;7.90;2.38;;;;;;;17.36;95.02;102467.53;5095197;28;20060;-57
2022/08/08 06:40:26;;;;;;;7.30;2.50;;;;;;;17.46;93.88;102473.06;5092319;28;20507;-64
2022/08/08 06:42:56;;;;;;;7.00;2.65;;;;;;;17.59;93.16;102475.75;5090940;28;20146;-67
2022/08/08 06:45:27;;;;;;;5.38;1.88;;;;;;;17.71;91.33;102471.38;5090795;28;20056;-64
2022/08/08 06:47:58;;;;;;;3.88;1.80;;;;;;;17.80;91.76;102477.88;5105437;28;20047;-63
2022/08/08 06:50:31;;;;;;;6.57;1.80;;;;;;;18.00;90.26;102479.16;5112406;28;20535;-63
2022/08/08 06:53:08;;;;;;;7.72;1.98;;;;;;;18.08;88.99;102484.78;5112355;28;20052;-62
2022/08/08 06:55:47;;;;;;;4.93;2.05;;;;;;;18.23;88.86;102483.69;5094934;28;20052;-58
2022/08/08 06:58:30;;;;;;;6.32;1.90;;;;;;;18.38;86.36;102487.06;5088718;28;20066;-64
2022/08/08 07:01:02;;;;;;;5.45;1.83;;;;;;;18.48;85.70;102481.06;5088786;28;20052;-63
2022/08/08 07:03:54;;;;;;;7.10;2.22;;;;;;;18.61;86.00;102481.88;5091996;28;20047;-56
2022/08/08 07:06:50;;;;;;;5.20;2.00;;;;;;;18.70;84.10;102480.31;5095876;28;20052;-60
2022/08/08 07:09:20;;;;;;;7.93;1.90;;;;;;;18.86;84.35;102485.38;5094216;28;20121;-62
2022/08/08 07:11:51;;;;;;;5.63;1.98;;;;;;;19.03;84.81;102478.78;5093881;28;20055;-63
2022/08/08 07:14:27;;;;;;;7.25;1.80;;;;;;;19.17;82.12;102483.94;5092428;28;20048;-63
2022/08/08 07:17:03;;;;;;;7.43;2.10;;;;;;;19.26;81.02;102487.72;5095342;28;20714;-64
2022/08/08 07:19:51;;;;;;;8.85;2.28;;;;;;;19.35;80.40;102492.34;5095787;28;20441;-64
2022/08/08 07:22:34;;;;;;;6.20;2.42;;;;;;;19.53;80.57;102484.72;5095601;28;20048;-64
2022/08/08 07:25:05;;;;;;;9.20;2.30;;;;;;;19.77;79.40;102486.47;5095233;28;20067;-57
2022/08/08 07:27:37;;;;;;;7.25;2.17;;;;;;;19.91;78.24;102486.25;5095341;28;20047;-57
2022/08/08 07:30:25;;;;;;;5.53;1.92;;;;;;;20.14;78.75;102486.25;5093181;28;20044;-57
2022/08/08 07:32:54;;;;;;;7.18;2.00;;;;;;;20.37;76.77;102489.72;5092133;28;20126;-57
2022/08/08 07:35:29;;;;;;;4.80;1.88;;;;;;;20.57;74.86;102500.59;5094184;28;20127;-56
2022/08/08 07:38:04;;;;;;;5.68;2.05;;;;;;;20.66;72.35;102494.50;5093611;28;20123;-57
2022/08/08 07:40:48;;;;;;;6.05;2.08;;;;;;;20.80;72.99;102497.91;5093666;28;20056;-58
2022/08/08 07:43:20;;;;;;;6.53;2.00;;;;;;;20.92;70.56;102500.38;5094962;28;20040;-58
2022/08/08 07:46:04;;;;;;;4.45;1.70;;;;;;;21.13;68.82;102506.75;5095198;28;20071;-57
2022/08/08 07:48:53;;;;;;;4.70;1.20;;;;;;;21.30;67.93;102495.47;5094953;28;20101;-57
2022/08/08 07:51:24;;;;;;;6.28;1.55;;;;;;;21.42;66.71;102502.44;5091165;28;20474;-60
2022/08/08 07:54:27;;;;;;;4.72;1.58;;;;;;;21.58;67.36;102498.47;5090150;28;20094;-62
2022/08/08 07:57:02;;;;;;;4.13;1.50;;;;;;;21.72;66.00;102494.59;5094476;28;20040;-57
2022/08/08 07:59:46;;;;;;;5.28;1.63;;;;;;;21.84;64.16;102500.72;5094490;28;20051;-58
2022/08/08 08:02:22;;;;;;;4.50;1.30;;;;;;;21.99;63.03;102502.06;5090626;28;20060;-62
2022/08/08 08:05:11;;;;;;;7.03;1.73;;;;;;;22.09;63.08;102499.41;5091194;28;20056;-62
2022/08/08 08:07:47;;;;;;;3.60;1.27;;;;;;;22.19;61.68;102499.44;5093885;28;20117;-62
2022/08/08 08:10:24;;;;;;;4.15;1.20;;;;;;;22.28;61.19;102501.28;5093804;28;20101;-60
2022/08/08 08:13:20;;;;;;;5.45;1.20;;;;;;;22.42;60.51;102506.28;5093998;28;20036;-63
2022/08/08 08:16:10;;;;;;;3.60;1.17;;;;;;;22.53;60.60;102502.63;5091863;28;20824;-63
2022/08/08 08:18:43;;;;;;;3.33;1.08;;;;;;;22.60;58.94;102511.81;5091681;28;20109;-63
2022/08/08 08:21:28;;;;;;;3.65;1.20;;;;;;;22.70;58.87;102509.16;5093441;28;20050;-63
2022/08/08 08:24:17;;;;;;;3.35;1.20;;;;;;;22.66;57.85;102505.06;5093066;28;20048;-57
2022/08/08 08:26:46;;;;;;;7.47;1.27;;;;;;;22.89;57.72;102507.44;5090749;28;20048;-63
2022/08/08 08:29:22;;;;;;;3.60;1.10;;;;;;;23.09;56.84;102501.09;5093056;28;20453;-57
2022/08/08 08:31:55;;;;;;;3.70;1.17;;;;;;;23.36;57.55;102507.59;5093584;28;20056;-57
2022/08/08 08:34:26;;;;;;;4.72;1.40;;;;;;;23.55;56.47;102500.50;5090991;28;20042;-62
2022/08/08 08:37:00;;;;;;;3.85;0.98;;;;;;;23.60;55.05;102504.41;5090836;28;20039;-63
2022/08/08 08:39:37;;;;;;;2.28;0.88;;;;;;;23.71;54.74;102503.41;5093858;28;20048;-63
2022/08/08 08:42:26;;;;;;;4.20;1.13;;;;;;;23.84;54.87;102504.91;5093788;28;20055;-63
2022/08/08 08:45:05;;;;;;;3.28;0.93;;;;;;;23.89;55.06;102499.97;5093813;28;20385;-63
2022/08/08 08:47:52;;;;;;;5.32;1.10;;;;;;;24.04;54.38;102503.84;5093926;28;20052;-57
2022/08/08 08:50:22;;;;;;;4.95;1.20;;;;;;;24.21;54.53;102514.78;5091037;28;20164;-57
2022/08/08 08:53:04;;;;;;;3.35;0.90;;;;;;;24.43;54.27;102514.38;5089884;28;20032;-58
2022/08/08 08:55:54;;;;;;;6.80;1.27;;;;;;;24.51;51.87;102512.78;5091983;28;20086;-63
2022/08/08 08:58:34;;;;;;;4.28;1.00;;;;;;;24.70;52.32;102507.28;5090617;28;20105;-57
2022/08/08 09:01:06;;;;;;;2.00;0.98;;;;;;;24.77;52.18;102505.69;5092814;28;20066;-57
2022/08/08 09:03:41;;;;;;;3.00;1.05;;;;;;;25.00;51.08;102512.44;5093497;28;20455;-63
2022/08/08 09:06:19;;;;;;;3.22;1.00;;;;;;;25.05;49.08;102510.94;5091824;28;20082;-63
2022/08/08 09:09:04;;;;;;;4.32;1.30;;;;;;;24.91;49.01;102519.56;5092923;28;20043;-63
2022/08/08 09:11:48;;;;;;;3.75;1.45;;;;;;;24.83;48.93;102509.59;5092940;28;20517;-63
2022/08/08 09:14:30;;;;;;;2.70;0.82;;;;;;;24.71;49.37;102510.81;5093020;28;20066;-57
2022/08/08 09:17:02;;;;;;;2.38;0.88;;;;;;;24.74;49.58;102521.28;5092937;28;20055;-58
2022/08/08 09:19:39;;;;;;;2.63;0.90;;;;;;;24.61;49.53;102510.84;5090465;28;20040;-64
2022/08/08 09:22:27;;;;;;;4.78;1.02;;;;;;;24.84;48.88;102511.25;5089629;28;20055;-63
2022/08/08 09:24:56;;;;;;;3.63;1.20;;;;;;;25.21;48.66;102521.00;5092808;28;20417;-58
2022/08/08 09:27:27;;;;;;;1.92;0.80;;;;;;;25.39;46.69;102514.78;5090386;28;20036;-63
2022/08/08 09:30:16;;;;;;;2.85;0.73;;;;;;;25.60;46.88;102522.47;5089710;28;20572;-57
2022/08/08 09:32:52;;;;;;;2.17;0.70;;;;;;;25.52;44.87;102520.56;5092688;28;20044;-62
2022/08/08 09:35:45;;;;;;;3.08;0.82;;;;;;;25.59;45.31;102516.25;5092521;28;20052;-58
2022/08/08 09:38:31;;;;;;;2.10;0.70;;;;;;;25.72;45.46;102515.81;5092276;28;20135;-57
2022/08/08 09:41:05;;;;;;;4.57;1.20;;;;;;;26.05;45.54;102509.75;5091378;28;20060;-57
2022/08/08 09:43:48;;;;;;;5.30;1.02;;;;;;;26.28;44.36;102516.22;5092525;28;20063;-61
2022/08/08 09:46:38;;;;;;;3.55;0.80;;;;;;;26.53;43.59;102501.97;5090200;28;20085;-59
2022/08/08 09:49:12;;;;;;;3.97;1.10;;;;;;;26.53;41.96;102497.41;5089788;28;20071;-58
2022/08/08 09:52:03;;;;;;;3.25;0.90;;;;;;;26.44;42.30;102496.56;5091977;28;20051;-62
2022/08/08 09:54:43;;;;;;;2.63;0.90;;;;;;;26.49;42.96;102496.91;5092367;28;20529;-62
2022/08/08 09:57:17;;;;;;;3.22;0.90;;;;;;;26.65;41.63;102500.63;5092097;28;20097;-62
2022/08/08 10:00:06;;;;;;;3.50;1.10;;;;;;;26.78;42.64;102494.78;5091565;28;20376;-62
2022/08/08 10:02:56;;;;;;;2.75;0.95;;;;;;;26.65;40.40;102501.50;5089399;28;20109;-57
2022/08/08 10:05:28;;;;;;;3.07;0.90;;;;;;;26.34;41.48;102503.94;5091037;28;20040;-57
2022/08/08 10:08:00;;;;;;;4.80;1.00;;;;;;;26.62;41.06;102511.75;5092048;28;20062;-57
2022/08/08 10:10:30;;;;;;;2.58;1.10;;;;;;;26.39;42.10;102509.69;5092398;28;20066;-62
2022/08/08 10:13:00;;;;;;;2.42;0.80;;;;;;;26.35;42.21;102512.88;5091976;28;20052;-62
2022/08/08 10:15:45;;;;;;;3.90;1.02;;;;;;;26.20;41.87;102510.81;5092046;28;20194;-63
2022/08/08 10:18:30;;;;;;;3.72;0.90;;;;;;;25.90;43.11;102512.19;5092006;28;20051;-62
2022/08/08 10:21:04;;;;;;;4.53;0.90;;;;;;;25.77;42.78;102518.88;5089818;28;20692;-57
2022/08/08 10:23:53;;;;;;;3.83;1.23;;;;;;;25.83;43.69;102519.22;5087630;28;20064;-62
2022/08/08 10:26:29;;;;;;;2.38;0.98;;;;;;;25.94;42.66;102513.56;5091467;28;20094;-62
2022/08/08 10:29:23;;;;;;;2.80;1.02;;;;;;;26.29;42.79;102520.63;5090671;28;20075;-61
2022/08/08 10:34:52;;;;;;;3.75;0.90;;;;;;;26.89;41.94;102509.78;5091134;28;20089;-56
2022/08/08 10:37:30;;;;;;;4.10;1.00;;;;;;;26.82;41.15;102507.75;5090699;28;20066;-55
2022/08/08 10:40:12;;;;;;;2.63;0.85;;;;;;;26.75;40.22;102511.28;5090162;28;20060;-58
2022/08/08 10:42:44;;;;;;;2.70;0.80;;;;;;;26.50;41.68;102503.13;5094360;28;20423;-62
2022/08/08 10:45:15;;;;;;;3.35;0.90;;;;;;;26.53;41.96;102505.50;5092691;28;20055;-62
2022/08/08 10:47:52;;;;;;;5.70;1.17;;;;;;;26.35;41.34;102513.72;5093262;28;20052;-62
2022/08/08 10:50:31;;;;;;;4.82;1.25;;;;;;;26.26;40.75;102512.00;5095848;28;20044;-63
2022/08/08 10:53:05;;;;;;;3.58;0.95;;;;;;;26.20;42.47;102512.66;5094353;28;20514;-63
2022/08/08 10:55:41;;;;;;;4.18;1.42;;;;;;;26.00;41.93;102512.91;5095664;28;20070;-57
2022/08/08 10:58:13;;;;;;;3.65;1.30;;;;;;;26.08;41.63;102504.91;5094803;28;20059;-57
2022/08/08 11:00:44;;;;;;;3.05;1.00;;;;;;;26.09;41.31;102505.72;5093418;28;20097;-62
2022/08/08 11:03:41;;;;;;;2.90;0.95;;;;;;;26.01;42.73;102500.28;5094320;28;20048;-56
2022/08/08 11:06:30;;;;;;;2.47;0.82;;;;;;;26.14;43.54;102509.63;5095425;28;20044;-62
2022/08/08 11:09:03;;;;;;;2.47;0.80;;;;;;;25.73;42.29;102509.41;5094171;28;20044;-58
2022/08/08 11:11:44;;;;;;;4.15;1.13;;;;;;;25.70;42.01;102512.44;5092801;28;20130;-64
2022/08/08 11:14:32;;;;;;;3.13;0.90;;;;;;;25.68;43.23;102502.81;5094555;28;20040;-57
2022/08/08 11:17:03;;;;;;;3.83;1.02;;;;;;;25.91;42.15;102492.31;5094751;28;20044;-56
2022/08/08 11:19:36;;;;;;;1.67;0.80;;;;;;;25.60;41.98;102503.63;5095169;28;20386;-57
2022/08/08 11:22:07;;;;;;;2.92;1.10;;;;;;;25.90;43.08;102506.78;5094986;28;20044;-63
2022/08/08 11:24:37;;;;;;;4.03;1.00;;;;;;;25.81;42.62;102497.84;5092951;28;20047;-62
2022/08/08 11:27:08;;;;;;;4.32;1.00;;;;;;;25.73;42.56;102490.56;5092136;28;20085;-63
2022/08/08 11:29:48;;;;;;;2.38;1.00;;;;;;;26.14;43.13;102501.53;5095067;28;20491;-63
2022/08/08 11:32:40;;;;;;;2.85;1.02;;;;;;;26.03;42.78;102496.44;5095086;28;20043;-62
2022/08/08 11:35:16;;;;;;;3.50;0.95;;;;;;;26.20;43.68;102493.81;5091935;28;20043;-63
2022/08/08 11:38:04;;;;;;;3.00;1.00;;;;;;;26.29;41.86;102485.56;5091706;28;20052;-57
2022/08/08 11:40:53;;;;;;;6.75;1.02;;;;;;;26.15;41.23;102492.44;5094953;28;20048;-62
2022/08/08 11:43:23;;;;;;;2.08;0.85;;;;;;;26.08;41.29;102487.84;5094540;28;20075;-62
2022/08/08 11:46:08;;;;;;;4.22;0.95;;;;;;;26.01;41.48;102484.94;5094550;28;20570;-57
2022/08/08 11:48:46;;;;;;;6.35;1.00;;;;;;;26.07;41.60;102486.16;5094797;28;20537;-58
2022/08/08 11:51:18;;;;;;;2.85;0.88;;;;;;;26.23;42.38;102480.84;5092946;28;20097;-58
2022/08/08 11:54:07;;;;;;;3.05;0.80;;;;;;;26.63;42.45;102473.81;5094205;28;20321;-63
2022/08/08 11:56:55;;;;;;;3.13;0.93;;;;;;;27.31;40.74;102477.19;5094534;28;20059;-58
2022/08/08 11:59:32;;;;;;;3.55;0.90;;;;;;;27.72;37.60;102468.16;5094608;28;20131;-62
2022/08/08 12:02:20;;;;;;;1.90;0.80;;;;;;;28.12;38.11;102468.97;5091378;28;20048;-56
2022/08/08 12:05:06;;;;;;;4.40;1.10;;;;;;;27.57;37.60;102464.47;5091528;28;20052;-57
2022/08/08 12:07:46;;;;;;;4.80;0.90;;;;;;;27.64;38.28;102466.31;5094548;28;20070;-57
2022/08/08 12:10:21;;;;;;;8.63;1.02;;;;;;;27.40;37.30;102478.03;5094635;28;20406;-59
2022/08/08 12:12:59;;;;;;;1.80;0.90;;;;;;;27.07;37.08;102466.44;5091356;28;20058;-58
2022/08/08 12:15:29;;;;;;;5.28;1.00;;;;;;;27.15;37.52;102469.94;5090562;28;20040;-56
2022/08/08 12:18:15;;;;;;;3.97;1.00;;;;;;;26.68;38.66;102467.91;5094303;28;20187;-63
2022/08/08 12:20:49;;;;;;;3.38;0.90;;;;;;;26.65;38.91;102470.94;5094183;28;20047;-58
2022/08/08 12:23:32;;;;;;;4.07;1.30;;;;;;;27.00;38.50;102458.16;5093386;28;20449;-58
2022/08/08 12:26:23;;;;;;;3.85;0.90;;;;;;;26.92;38.66;102464.41;5092620;28;20040;-58
2022/08/08 12:29:19;;;;;;;1.43;0.90;;;;;;;27.43;37.99;102461.50;5091191;28;20039;-63
2022/08/08 12:31:59;;;;;;;5.28;1.20;;;;;;;27.96;38.02;102453.69;5093775;28;20456;-59
2022/08/08 12:34:35;;;;;;;2.95;0.93;;;;;;;28.39;37.09;102449.75;5093726;28;20103;-58
2022/08/08 12:37:05;;;;;;;5.10;1.30;;;;;;;28.92;36.24;102453.38;5093836;28;20056;-58
2022/08/08 12:39:37;;;;;;;4.93;1.05;;;;;;;28.93;36.47;102459.63;5092537;28;20052;-62
2022/08/08 12:42:25;;;;;;;3.88;0.90;;;;;;;28.43;36.12;102461.88;5092439;28;20047;-58
2022/08/08 12:45:05;;;;;;;3.72;1.10;;;;;;;28.16;36.45;102462.19;5093343;28;20044;-63